createdAt,value
2023-01-19T00:01:27.266Z,70.32
2023-01-19T00:03:57.504Z,50.05
2023-01-19T00:06:27.557Z,43.40
2023-01-19T00:08:57.559Z,40.30
2023-01-19T00:11:27.637Z,35.15
2023-01-19T00:13:58.896Z,30.85
2023-01-19T00:16:31.644Z,26.35
2023-01-19T00:19:01.749Z,18.20
2023-01-19T00:21:31.783Z,24.63
2023-01-19T00:24:01.771Z,29.08
2023-01-19T00:26:31.612Z,24.05
2023-01-19T00:29:01.811Z,27.30
2023-01-19T00:31:34.447Z,19.98
2023-01-19T00:34:04.493Z,15.45
2023-01-19T00:36:34.795Z,14.93
2023-01-19T00:39:04.825Z,116.88
2023-01-19T00:41:47.201Z,104.25
2023-01-19T00:44:17.290Z,50.10
2023-01-19T00:46:49.909Z,35.35
2023-01-19T00:49:19.900Z,21.63
2023-01-19T00:51:50.111Z,17.42
2023-01-19T00:54:20.408Z,18.52
2023-01-19T00:56:50.594Z,16.65
2023-01-19T00:59:20.583Z,28.27
2023-01-19T01:01:53.352Z,39.90
2023-01-19T01:04:23.634Z,38.25
2023-01-19T01:06:53.620Z,24.10
2023-01-19T01:09:24.428Z,30.70
2023-01-19T01:11:54.526Z,43.78
2023-01-19T01:14:24.524Z,54.22
2023-01-19T01:16:57.111Z,33.15
2023-01-19T01:19:27.227Z,20.00
2023-01-19T01:21:57.210Z,16.88
2023-01-19T01:24:27.193Z,19.50
2023-01-19T01:26:57.216Z,17.27
2023-01-19T01:29:27.189Z,18.05
2023-01-19T01:31:59.842Z,19.13
2023-01-19T01:34:29.916Z,14.52
2023-01-19T01:36:59.868Z,17.75
2023-01-19T01:39:29.974Z,31.02
2023-01-19T01:41:59.965Z,16.23
2023-01-19T01:44:50.116Z,21.10
2023-01-19T01:47:31.085Z,16.67
2023-01-19T01:50:08.749Z,16.55
2023-01-19T01:53:06.661Z,14.70
2023-01-19T01:55:38.122Z,15.95
2023-01-19T01:58:08.404Z,18.00
2023-01-19T02:00:50.749Z,22.83
2023-01-19T02:03:24.484Z,18.15
2023-01-19T02:05:56.977Z,22.90
2023-01-19T02:08:43.497Z,14.68
2023-01-19T02:11:26.077Z,12.75
2023-01-19T02:13:56.531Z,14.77
2023-01-19T02:16:26.827Z,14.52
2023-01-19T02:19:01.334Z,16.67
2023-01-19T02:21:36.804Z,15.95
2023-01-19T02:24:09.969Z,16.15
2023-01-19T02:26:42.362Z,18.60
2023-01-19T02:29:14.331Z,18.38
2023-01-19T02:31:45.482Z,17.58
2023-01-19T02:34:18.195Z,16.63
2023-01-19T02:36:51.171Z,16.67
2023-01-19T02:39:26.620Z,17.98
2023-01-19T02:41:58.787Z,17.35
2023-01-19T02:44:29.990Z,16.27
2023-01-19T02:47:00.554Z,19.20
2023-01-19T02:49:31.977Z,23.00
2023-01-19T02:52:02.393Z,18.40
2023-01-19T02:54:42.219Z,22.75
2023-01-19T02:57:34.134Z,21.40
2023-01-19T03:00:15.649Z,21.95
2023-01-19T03:02:52.932Z,26.15
2023-01-19T03:05:48.949Z,31.83
2023-01-19T03:08:26.815Z,34.97
2023-01-19T03:11:03.735Z,38.65
2023-01-19T03:13:37.472Z,35.15
2023-01-19T03:16:12.005Z,45.85
2023-01-19T03:18:43.906Z,48.70
2023-01-19T03:21:15.066Z,50.28
2023-01-19T03:23:48.159Z,46.90
2023-01-19T03:26:23.034Z,48.00
2023-01-19T03:28:55.171Z,34.78
2023-01-19T03:31:28.066Z,46.33
2023-01-19T03:34:00.536Z,31.60
2023-01-19T03:36:34.279Z,33.13
2023-01-19T03:39:05.756Z,40.60
2023-01-19T03:41:39.248Z,40.97
2023-01-19T03:44:09.699Z,39.88
2023-01-19T03:46:39.599Z,37.70
2023-01-19T03:49:10.112Z,26.10
2023-01-19T03:51:40.472Z,30.30
2023-01-19T03:54:12.792Z,33.15
2023-01-19T03:56:45.506Z,25.55
2023-01-19T03:59:17.645Z,33.95
2023-01-19T04:01:47.764Z,26.42
2023-01-19T04:04:18.312Z,30.00
2023-01-19T04:06:48.311Z,22.48
2023-01-19T04:09:19.452Z,22.77
2023-01-19T04:11:52.842Z,24.98
2023-01-19T04:14:22.968Z,17.98
2023-01-19T04:16:53.010Z,29.40
2023-01-19T04:19:23.019Z,21.77
2023-01-19T04:21:53.396Z,22.48
2023-01-19T04:24:23.395Z,23.92
2023-01-19T04:26:57.424Z,15.75
2023-01-19T04:29:27.444Z,24.10
2023-01-19T04:31:57.383Z,26.38
2023-01-19T04:34:27.408Z,19.92
2023-01-19T04:36:57.414Z,27.20
2023-01-19T04:39:27.692Z,20.30
2023-01-19T04:42:00.958Z,21.58
2023-01-19T04:44:31.306Z,16.52
2023-01-19T04:47:01.689Z,16.88
2023-01-19T04:49:31.712Z,22.45
2023-01-19T04:52:02.038Z,20.90
2023-01-19T04:54:32.097Z,17.90
2023-01-19T04:57:04.943Z,17.42
2023-01-19T04:59:34.934Z,15.00
2023-01-19T05:02:04.986Z,17.80
2023-01-19T05:04:35.168Z,20.48
2023-01-19T05:07:05.473Z,12.38
2023-01-19T05:09:35.564Z,14.07
2023-01-19T05:12:08.795Z,13.57
2023-01-19T05:14:38.915Z,13.13
2023-01-19T05:17:08.922Z,12.20
2023-01-19T05:19:38.877Z,10.65
2023-01-19T05:22:09.074Z,9.20
2023-01-19T05:24:39.155Z,9.52
2023-01-19T05:27:11.791Z,10.07
2023-01-19T05:29:41.797Z,7.28
2023-01-19T05:32:12.076Z,9.27
2023-01-19T05:34:42.121Z,7.78
2023-01-19T05:37:12.109Z,4.88
2023-01-19T05:39:42.107Z,4.97
2023-01-19T05:42:14.722Z,6.13
2023-01-19T05:44:44.778Z,8.18
2023-01-19T05:47:14.792Z,5.60
2023-01-19T05:49:45.038Z,6.55
2023-01-19T05:52:15.065Z,6.63
2023-01-19T05:54:45.085Z,7.40
2023-01-19T05:57:17.753Z,5.85
2023-01-19T05:59:47.840Z,7.32
2023-01-19T06:02:17.896Z,5.60
2023-01-19T06:04:47.986Z,6.78
2023-01-19T06:07:18.006Z,5.18
2023-01-19T06:09:48.026Z,3.53
2023-01-19T06:12:20.576Z,5.55
2023-01-19T06:14:51.024Z,7.15
2023-01-19T06:17:21.061Z,6.70
2023-01-19T06:19:51.021Z,5.65
2023-01-19T06:22:20.990Z,6.82
2023-01-19T06:24:51.238Z,6.88
2023-01-19T06:27:23.804Z,7.53
2023-01-19T06:29:53.896Z,8.65
2023-01-19T06:32:23.854Z,10.02
2023-01-19T06:34:54.186Z,7.85
2023-01-19T06:37:26.883Z,7.38
2023-01-19T06:39:56.914Z,8.50
2023-01-19T06:42:29.424Z,6.07
2023-01-19T06:44:59.437Z,6.60
2023-01-19T06:47:29.324Z,7.03
2023-01-19T06:49:59.513Z,6.20
2023-01-19T06:52:29.456Z,5.22
2023-01-19T06:54:59.430Z,7.75
2023-01-19T06:57:31.965Z,5.07
2023-01-19T07:00:05.352Z,9.25
2023-01-19T07:02:35.559Z,7.85
2023-01-19T07:05:06.840Z,9.25
2023-01-19T07:07:37.071Z,7.43
2023-01-19T07:10:08.219Z,6.78
2023-01-19T07:12:40.870Z,7.68
2023-01-19T07:15:12.330Z,5.55
2023-01-19T07:17:42.405Z,6.60
2023-01-19T07:20:14.542Z,7.57
2023-01-19T07:22:45.853Z,7.30
2023-01-19T07:25:16.094Z,6.93
2023-01-19T07:27:48.660Z,7.60
2023-01-19T07:30:19.019Z,6.95
2023-01-19T07:32:48.938Z,6.55
2023-01-19T07:35:19.020Z,7.55
2023-01-19T07:37:48.999Z,7.07
2023-01-19T07:40:19.553Z,9.27
2023-01-19T07:42:52.928Z,6.82
2023-01-19T07:45:23.752Z,16.05
2023-01-19T07:47:53.702Z,10.52
2023-01-19T07:50:25.647Z,12.15
2023-01-19T07:52:55.796Z,18.00
2023-01-19T07:55:26.882Z,24.17
2023-01-19T07:57:59.482Z,31.52
2023-01-19T08:00:29.718Z,22.45
2023-01-19T08:03:02.987Z,24.08
2023-01-19T08:05:33.425Z,20.27
2023-01-19T08:08:05.711Z,23.55
2023-01-19T08:10:35.845Z,19.55
2023-01-19T08:13:09.109Z,33.83
2023-01-19T08:15:39.147Z,31.52
2023-01-19T08:18:10.015Z,35.38
2023-01-19T08:20:40.337Z,40.75
2023-01-19T08:23:10.406Z,40.30
2023-01-19T08:25:42.380Z,36.22
2023-01-19T08:28:16.864Z,47.10
2023-01-19T08:30:54.185Z,27.88
2023-01-19T08:33:25.440Z,21.42
2023-01-19T08:35:56.558Z,19.65
2023-01-19T08:38:26.580Z,28.02
2023-01-19T08:40:56.516Z,65.80
2023-01-19T08:43:29.185Z,22.42
2023-01-19T08:45:59.202Z,15.38
2023-01-19T08:48:29.152Z,13.60
2023-01-19T08:50:59.249Z,18.65
2023-01-19T08:53:29.246Z,19.02
2023-01-19T08:56:01.396Z,69.57
2023-01-19T08:58:34.050Z,78.22
2023-01-19T09:01:04.382Z,35.58
2023-01-19T09:03:34.579Z,28.00
2023-01-19T09:06:04.616Z,25.42
2023-01-19T09:08:34.812Z,23.38
2023-01-19T09:11:05.392Z,20.85
2023-01-19T09:13:38.635Z,17.35
2023-01-19T09:16:11.667Z,17.27
2023-01-19T09:18:42.292Z,16.40
2023-01-19T09:21:12.677Z,14.85
2023-01-19T09:23:42.714Z,24.75
2023-01-19T09:26:13.142Z,12.88
2023-01-19T09:28:45.803Z,14.63
2023-01-19T09:31:16.521Z,17.52
2023-01-19T09:33:46.778Z,15.57
2023-01-19T09:36:16.829Z,20.08
2023-01-19T09:38:46.804Z,67.93
2023-01-19T09:41:22.906Z,16.75
2023-01-19T09:44:00.290Z,11.18
2023-01-19T09:46:33.960Z,11.30
2023-01-19T09:49:06.861Z,12.65
2023-01-19T09:51:40.315Z,12.70
2023-01-19T09:54:15.876Z,15.60
2023-01-19T09:56:46.623Z,17.00
2023-01-19T09:59:29.719Z,13.05
2023-01-19T10:02:13.134Z,14.23
2023-01-19T10:04:43.945Z,15.07
2023-01-19T10:07:22.695Z,12.32
2023-01-19T10:10:04.421Z,16.70
2023-01-19T10:12:42.428Z,19.42
2023-01-19T10:15:23.589Z,16.90
2023-01-19T10:18:03.522Z,16.40
2023-01-19T10:20:38.032Z,15.57
2023-01-19T10:23:09.198Z,22.58
2023-01-19T10:25:39.203Z,16.52
2023-01-19T10:28:09.500Z,14.25
2023-01-19T10:30:43.077Z,11.40
2023-01-19T10:33:15.536Z,17.65
2023-01-19T10:35:48.257Z,14.13
2023-01-19T10:38:22.229Z,13.55
2023-01-19T10:40:56.554Z,19.52
2023-01-19T10:43:40.189Z,14.27
2023-01-19T10:46:21.182Z,20.13
2023-01-19T10:48:52.628Z,12.85
2023-01-19T10:51:23.494Z,11.70
2023-01-19T10:54:02.442Z,14.90
2023-01-19T10:56:37.681Z,9.40
2023-01-19T10:59:12.292Z,10.18
2023-01-19T11:01:45.228Z,10.63
2023-01-19T11:04:25.313Z,14.02
2023-01-19T11:06:55.284Z,18.30
2023-01-19T11:09:25.233Z,17.13
2023-01-19T11:11:55.928Z,12.63
2023-01-19T11:14:27.512Z,9.63
2023-01-19T11:17:01.166Z,20.90
2023-01-19T11:19:33.196Z,23.65
2023-01-19T11:22:21.848Z,8.77
2023-01-19T11:24:52.635Z,22.40
2023-01-19T11:27:23.670Z,28.70
2023-01-19T11:29:57.095Z,9.23
2023-01-19T11:32:33.265Z,25.02
2023-01-19T11:35:03.736Z,41.28
2023-01-19T11:37:34.826Z,26.17
2023-01-19T11:40:07.215Z,10.60
2023-01-19T11:42:37.508Z,56.83
2023-01-19T11:45:14.171Z,26.40
2023-01-19T11:47:49.768Z,22.70
2023-01-19T11:50:26.251Z,15.55
2023-01-19T11:53:00.098Z,14.70
2023-01-19T11:55:37.002Z,10.35
2023-01-19T11:58:07.877Z,28.17
2023-01-19T12:00:40.887Z,17.92
2023-01-19T12:03:19.149Z,16.08
2023-01-19T12:05:51.303Z,11.20
2023-01-19T12:08:25.009Z,27.15
2023-01-19T12:10:56.175Z,16.27
2023-01-19T12:13:27.359Z,22.02
2023-01-19T12:16:01.035Z,6.47
2023-01-19T12:18:38.832Z,7.63
2023-01-19T12:21:09.034Z,12.98
2023-01-19T12:23:51.264Z,8.45
2023-01-19T12:26:34.090Z,24.13
2023-01-19T12:29:08.948Z,8.32
2023-01-19T12:31:40.812Z,13.20
2023-01-19T12:34:39.561Z,37.85
2023-01-19T12:37:12.542Z,27.45
2023-01-19T12:39:51.089Z,22.92
2023-01-19T12:42:21.551Z,50.08
2023-01-19T12:44:51.900Z,39.92
2023-01-19T12:47:24.572Z,15.07
2023-01-19T12:50:00.571Z,21.05
2023-01-19T12:52:34.398Z,41.13
2023-01-19T12:55:10.278Z,38.38
2023-01-19T12:57:42.638Z,20.45
2023-01-19T13:00:32.441Z,10.63
2023-01-19T13:03:03.275Z,6.93
2023-01-19T13:06:02.686Z,15.15
2023-01-19T13:11:26.265Z,21.13
2023-01-19T13:14:30.208Z,22.35
2023-01-19T13:17:29.980Z,13.73
2023-01-19T13:20:27.635Z,14.65
2023-01-19T13:23:22.426Z,7.65
2023-01-19T13:26:05.572Z,7.07
2023-01-19T13:28:39.238Z,14.52
2023-01-19T13:31:10.244Z,12.98
2023-01-19T13:33:46.856Z,11.35
2023-01-19T13:36:30.073Z,9.40
2023-01-19T13:39:04.755Z,9.60
2023-01-19T13:41:38.610Z,10.10
2023-01-19T13:44:11.293Z,10.52
2023-01-19T13:46:41.766Z,8.15
2023-01-19T13:49:22.290Z,13.20
2023-01-19T13:52:07.549Z,15.43
2023-01-19T13:54:40.103Z,15.18
2023-01-19T13:57:27.283Z,13.02
2023-01-19T14:00:19.597Z,9.27
2023-01-19T14:02:59.028Z,9.88
2023-01-19T14:05:31.731Z,15.40
2023-01-19T14:08:13.919Z,10.48
2023-01-19T14:10:48.674Z,14.25
2023-01-19T14:13:20.753Z,8.18
2023-01-19T14:15:54.123Z,11.90
2023-01-19T14:18:30.551Z,12.70
2023-01-19T14:21:03.905Z,11.23
2023-01-19T14:23:43.063Z,12.40
2023-01-19T14:26:46.893Z,7.22
2023-01-19T14:29:22.667Z,7.95
2023-01-19T14:31:54.594Z,7.43
2023-01-19T14:34:39.274Z,8.30
2023-01-19T14:37:19.917Z,6.05
2023-01-19T14:39:51.716Z,6.70
2023-01-19T14:42:29.923Z,8.77
2023-01-19T14:45:01.663Z,6.80
2023-01-19T14:47:38.243Z,9.15
2023-01-19T14:50:23.982Z,8.18
2023-01-19T14:52:56.961Z,9.70
2023-01-19T14:55:38.270Z,9.45
2023-01-19T14:58:14.881Z,17.48
2023-01-19T15:00:45.584Z,7.35
2023-01-19T15:03:15.787Z,10.10
2023-01-19T15:05:48.033Z,10.63
2023-01-19T15:08:19.747Z,9.80
2023-01-19T15:10:49.769Z,9.00
2023-01-19T15:13:24.207Z,7.70
2023-01-19T15:15:54.984Z,6.15
2023-01-19T15:18:27.294Z,13.85
2023-01-19T15:21:02.881Z,6.38
2023-01-19T15:23:33.035Z,7.47
2023-01-19T15:26:03.801Z,12.07
2023-01-19T15:28:36.551Z,11.10
2023-01-19T15:31:06.711Z,11.55
2023-01-19T15:33:37.136Z,85.15
2023-01-19T15:36:48.959Z,170.13
2023-01-19T15:39:18.914Z,117.70
2023-01-19T15:41:48.819Z,121.13
2023-01-19T15:44:21.399Z,131.70
2023-01-19T15:46:53.819Z,48.58
2023-01-19T15:49:24.598Z,28.67
2023-01-19T15:51:54.686Z,54.75
2023-01-19T15:54:24.658Z,72.40
2023-01-19T15:56:54.784Z,119.18
2023-01-19T15:59:27.326Z,210.35
2023-01-19T16:01:57.641Z,229.63
2023-01-19T16:04:27.700Z,101.00
2023-01-19T16:06:57.694Z,76.10
2023-01-19T16:09:27.848Z,141.73
2023-01-19T16:11:59.687Z,52.72
2023-01-19T16:14:32.356Z,182.65
2023-01-19T16:17:02.279Z,98.97
2023-01-19T16:19:32.252Z,219.35
2023-01-19T16:22:03.199Z,237.75
2023-01-19T16:24:33.161Z,295.13
2023-01-19T16:27:04.128Z,205.52
2023-01-19T16:29:36.759Z,114.22
2023-01-19T16:32:22.070Z,74.47
2023-01-19T16:34:52.041Z,40.05
2023-01-19T16:37:21.993Z,38.95
2023-01-19T16:39:53.018Z,36.00
2023-01-19T16:42:23.037Z,37.30
2023-01-19T16:44:55.564Z,55.53
2023-01-19T16:47:25.539Z,58.38
2023-01-19T16:49:55.625Z,64.68
2023-01-19T16:52:25.619Z,85.78
2023-01-19T16:54:55.583Z,85.75
2023-01-19T16:57:25.532Z,81.80
2023-01-19T16:59:58.108Z,57.95
2023-01-19T17:02:28.127Z,71.35
2023-01-19T17:05:00.248Z,51.22
2023-01-19T17:07:30.476Z,84.55
2023-01-19T17:10:00.389Z,125.32
2023-01-19T17:12:32.224Z,121.00
2023-01-19T17:15:05.064Z,93.97
2023-01-19T17:17:36.508Z,78.28
2023-01-19T17:20:07.107Z,36.08
2023-01-19T17:22:37.065Z,36.83
2023-01-19T17:25:07.698Z,25.15
2023-01-19T17:27:38.314Z,23.35
2023-01-19T17:30:12.634Z,20.05
2023-01-19T17:32:42.964Z,15.85
2023-01-19T17:35:13.266Z,16.75
2023-01-19T17:37:43.252Z,22.23
2023-01-19T17:40:14.826Z,21.27
2023-01-19T17:42:44.955Z,11.98
2023-01-19T17:45:17.589Z,16.98
2023-01-19T17:47:47.514Z,13.25
2023-01-19T17:50:18.039Z,15.57
2023-01-19T17:52:48.767Z,10.77
2023-01-19T17:55:19.876Z,10.18
2023-01-19T17:57:49.929Z,4.28
2023-01-19T18:00:24.153Z,12.02
2023-01-19T18:02:54.906Z,10.90
2023-01-19T18:05:26.373Z,7.43
2023-01-19T18:07:56.513Z,9.82
2023-01-19T18:10:26.519Z,5.82
2023-01-19T18:12:56.435Z,16.00
2023-01-19T18:15:28.946Z,12.68
2023-01-19T18:17:59.132Z,12.68
2023-01-19T18:20:30.819Z,15.10
2023-01-19T18:23:01.657Z,24.58
2023-01-19T18:25:31.924Z,19.67
2023-01-19T18:28:01.919Z,23.38
2023-01-19T18:30:34.459Z,19.90
2023-01-19T18:33:04.615Z,39.90
2023-01-19T18:35:34.573Z,99.38
2023-01-19T18:38:04.490Z,51.53
2023-01-19T18:40:34.546Z,35.42
2023-01-19T18:43:04.666Z,49.45
2023-01-19T18:45:38.378Z,23.60
2023-01-19T18:48:08.799Z,34.38
2023-01-19T18:50:39.992Z,46.08
2023-01-19T18:53:09.984Z,63.33
2023-01-19T18:55:40.084Z,41.70
2023-01-19T19:09:18.793Z,14.80
2023-01-19T19:11:48.916Z,15.05
2023-01-19T19:14:19.364Z,14.27
2023-01-19T19:16:49.396Z,13.25
2023-01-19T19:19:19.586Z,13.07
2023-01-19T19:21:49.683Z,9.55
2023-01-19T19:24:22.475Z,11.05
2023-01-19T19:26:52.407Z,14.25
2023-01-19T19:29:22.368Z,15.55
2023-01-19T19:31:52.281Z,6.88
2023-01-19T19:34:22.871Z,15.00
2023-01-19T19:36:54.933Z,11.75
2023-01-19T19:39:28.067Z,8.27
2023-01-19T19:41:58.229Z,13.07
2023-01-19T19:44:28.170Z,10.10
2023-01-19T19:46:58.053Z,16.20
2023-01-19T19:49:28.229Z,15.52
2023-01-19T19:51:58.356Z,10.23
2023-01-19T19:54:31.148Z,15.82
2023-01-19T19:57:01.393Z,9.65
2023-01-19T19:59:31.586Z,18.15
2023-01-19T20:02:01.795Z,13.52
2023-01-19T20:04:31.934Z,9.13
2023-01-19T20:07:02.230Z,12.00
2023-01-19T20:09:34.902Z,8.18
2023-01-19T20:12:04.851Z,10.20
2023-01-19T20:14:34.949Z,14.32
2023-01-19T20:17:06.030Z,12.02
2023-01-19T20:19:36.142Z,14.73
2023-01-19T20:22:06.353Z,12.45
2023-01-19T20:24:39.160Z,12.55
2023-01-19T20:27:09.312Z,11.15
2023-01-19T20:29:39.444Z,12.35
2023-01-19T20:32:10.808Z,10.70
2023-01-19T20:34:40.730Z,16.70
2023-01-19T20:37:11.279Z,16.08
2023-01-19T20:39:45.457Z,13.77
2023-01-19T20:42:16.823Z,17.15
2023-01-19T20:44:46.978Z,16.05
2023-01-19T20:47:17.152Z,15.00
2023-01-19T20:49:47.269Z,11.38
2023-01-19T20:52:17.253Z,13.95
2023-01-19T20:54:49.805Z,10.43
2023-01-19T20:57:19.953Z,12.07
2023-01-19T20:59:50.121Z,14.10
2023-01-19T21:02:20.675Z,11.20
2023-01-19T21:04:53.451Z,17.25
2023-01-19T21:07:23.895Z,9.27
2023-01-19T21:09:56.505Z,8.20
2023-01-19T21:12:26.519Z,15.93
2023-01-19T21:14:56.457Z,17.08
2023-01-19T21:17:26.405Z,17.27
2023-01-19T21:19:56.357Z,15.23
2023-01-19T21:22:26.283Z,14.13
2023-01-19T21:24:58.982Z,12.48
2023-01-19T21:27:29.079Z,16.23
2023-01-19T21:30:00.930Z,17.15
2023-01-19T21:32:32.918Z,13.13
2023-01-19T21:35:02.837Z,14.60
2023-01-19T21:37:32.899Z,23.23
2023-01-19T21:40:06.615Z,11.35
2023-01-19T21:42:36.661Z,11.45
2023-01-19T21:45:09.427Z,16.35
2023-01-19T21:47:42.606Z,16.95
2023-01-19T21:50:14.274Z,16.63
2023-01-19T21:52:44.513Z,16.40
2023-01-19T21:55:17.232Z,17.45
2023-01-19T21:57:47.228Z,24.67
2023-01-19T22:00:17.768Z,20.73
2023-01-19T22:03:02.706Z,36.20
2023-01-19T22:05:36.208Z,16.75
2023-01-19T22:08:06.733Z,20.95
2023-01-19T22:10:41.017Z,21.17
2023-01-19T22:13:10.970Z,20.85
2023-01-19T22:15:40.892Z,20.75
2023-01-19T22:18:10.832Z,14.25
2023-01-19T22:20:40.911Z,17.13
2023-01-19T22:23:10.873Z,17.17
2023-01-19T22:25:43.437Z,14.07
2023-01-19T22:28:13.414Z,11.60
2023-01-19T22:30:43.709Z,13.70
2023-01-19T22:33:13.684Z,18.77
2023-01-19T22:35:43.615Z,18.75
2023-01-19T22:38:13.575Z,16.60
2023-01-19T22:40:46.691Z,17.83
2023-01-19T22:43:16.600Z,30.15
2023-01-19T22:45:46.529Z,17.85
2023-01-19T22:48:16.485Z,21.02
2023-01-19T22:50:46.403Z,14.20
2023-01-19T22:53:16.360Z,10.80
2023-01-19T22:55:48.904Z,20.75
2023-01-19T22:58:20.112Z,19.85
2023-01-19T23:00:50.211Z,18.50
2023-01-19T23:03:20.209Z,24.92
2023-01-19T23:05:50.165Z,18.10
2023-01-19T23:08:20.185Z,20.17
2023-01-19T23:10:52.739Z,14.40
2023-01-19T23:13:22.664Z,18.98
2023-01-19T23:15:52.757Z,16.40
2023-01-19T23:18:22.743Z,13.40
2023-01-19T23:20:52.707Z,14.40
2023-01-19T23:23:22.711Z,15.48
2023-01-19T23:25:55.298Z,14.45
2023-01-19T23:28:25.249Z,16.00
2023-01-19T23:30:55.312Z,13.73
2023-01-19T23:33:25.345Z,34.70
2023-01-19T23:35:57.402Z,20.00
2023-01-19T23:38:27.354Z,12.02
2023-01-19T23:41:02.505Z,9.55
2023-01-19T23:43:32.550Z,12.60
2023-01-19T23:46:05.650Z,17.38
2023-01-19T23:48:36.599Z,12.27
2023-01-19T23:51:09.172Z,9.35
2023-01-19T23:53:39.619Z,13.38
2023-01-19T23:56:17.885Z,8.60
2023-01-19T23:58:48.546Z,16.55
